Sugar Hill, New Hampshire
Current Conditions -  °F | °C
As of 12:52 PM on Saturday 20 Dec 2014 (Local Time) from KHIE Reporting Station
Clear Clear  
Wind Chill: 25°   Ceiling: Unl
Heat Index: 25°   Visibility: 10mi
Dew Point: 18°   Wind: 0mph
Humidity: 75%   Direction: NA
Pressure: 30.23"   Gusts: NA
Location:  44.22°N, 71.8°W
Report Text: KHIE 201752Z AUTO 00000KT 10SM CLR M04/M08 A3023 RMK AO2 SLP257 T10391078 11039 21122 56018
Loading
Personal Weather Stations






























Interactive Weather Map New forecast layout! Learn more

10-Day Weather Forecast

Advertisements
Track Severe Weather on mobile